sensor_id;sensor_type;location;lat;lon;timestamp;P1;durP1;ratioP1;P2;durP2;ratioP2
46505;SDS011;32220;49.808;9.968;2024-02-23T08:37:50;2.20;;;0.77;;
46505;SDS011;32220;49.808;9.968;2024-02-23T08:40:18;2.03;;;0.80;;
46505;SDS011;32220;49.808;9.968;2024-02-23T08:42:46;4.70;;;0.67;;
46505;SDS011;32220;49.808;9.968;2024-02-23T08:45:16;2.37;;;0.60;;
46505;SDS011;32220;49.808;9.968;2024-02-23T08:47:58;3.57;;;0.80;;
46505;SDS011;32220;49.808;9.968;2024-02-23T08:50:27;2.10;;;0.60;;
46505;SDS011;32220;49.808;9.968;2024-02-23T08:52:55;0.53;;;0.47;;
46505;SDS011;32220;49.808;9.968;2024-02-23T08:55:23;1.67;;;0.73;;
46505;SDS011;32220;49.808;9.968;2024-02-23T08:57:51;2.97;;;0.80;;
46505;SDS011;32220;49.808;9.968;2024-02-23T09:00:18;2.13;;;0.73;;
46505;SDS011;32220;49.808;9.968;2024-02-23T09:02:46;1.73;;;0.50;;
46505;SDS011;32220;49.808;9.968;2024-02-23T09:05:14;2.00;;;0.53;;
46505;SDS011;32220;49.808;9.968;2024-02-23T09:07:43;1.57;;;0.60;;
46505;SDS011;32220;49.808;9.968;2024-02-23T09:10:11;5.33;;;1.97;;
46505;SDS011;32220;49.808;9.968;2024-02-23T09:12:38;4.47;;;1.67;;
46505;SDS011;32220;49.808;9.968;2024-02-23T09:15:06;2.13;;;1.00;;
46505;SDS011;32220;49.808;9.968;2024-02-23T09:17:34;1.13;;;0.60;;
46505;SDS011;32220;49.808;9.968;2024-02-23T09:20:02;2.70;;;0.80;;
46505;SDS011;32220;49.808;9.968;2024-02-23T09:22:30;1.37;;;0.80;;
46505;SDS011;32220;49.808;9.968;2024-02-23T09:24:59;0.50;;;0.50;;
46505;SDS011;32220;49.808;9.968;2024-02-23T09:27:26;3.37;;;0.90;;
46505;SDS011;32220;49.808;9.968;2024-02-23T09:29:54;2.30;;;0.80;;
46505;SDS011;32220;49.808;9.968;2024-02-23T09:32:21;1.17;;;0.50;;
46505;SDS011;32220;49.808;9.968;2024-02-23T09:34:49;3.00;;;0.90;;
46505;SDS011;32220;49.808;9.968;2024-02-23T09:37:17;2.67;;;0.60;;
46505;SDS011;32220;49.808;9.968;2024-02-23T09:39:44;1.40;;;0.70;;
46505;SDS011;32220;49.808;9.968;2024-02-23T09:42:13;1.87;;;0.60;;
46505;SDS011;32220;49.808;9.968;2024-02-23T09:44:44;2.50;;;0.70;;
46505;SDS011;32220;49.808;9.968;2024-02-23T09:47:12;2.03;;;0.70;;
46505;SDS011;32220;49.808;9.968;2024-02-23T09:49:40;1.17;;;0.60;;
46505;SDS011;32220;49.808;9.968;2024-02-23T09:52:08;2.60;;;0.57;;
46505;SDS011;32220;49.808;9.968;2024-02-23T09:54:38;1.33;;;0.73;;
46505;SDS011;32220;49.808;9.968;2024-02-23T09:57:06;3.00;;;0.80;;
46505;SDS011;32220;49.808;9.968;2024-02-23T09:59:37;1.60;;;0.70;;
46505;SDS011;32220;49.808;9.968;2024-02-23T10:02:06;3.37;;;0.93;;
46505;SDS011;32220;49.808;9.968;2024-02-23T10:04:39;1.30;;;0.50;;
46505;SDS011;32220;49.808;9.968;2024-02-23T10:07:40;1.87;;;0.70;;
46505;SDS011;32220;49.808;9.968;2024-02-23T10:10:29;1.23;;;0.60;;
46505;SDS011;32220;49.808;9.968;2024-02-23T10:13:18;1.27;;;0.60;;
46505;SDS011;32220;49.808;9.968;2024-02-23T10:16:31;1.07;;;0.80;;
46505;SDS011;32220;49.808;9.968;2024-02-23T10:18:59;1.67;;;0.90;;
46505;SDS011;32220;49.808;9.968;2024-02-23T10:21:51;1.60;;;0.77;;
46505;SDS011;32220;49.808;9.968;2024-02-23T10:24:19;2.30;;;0.70;;
46505;SDS011;32220;49.808;9.968;2024-02-23T10:26:47;1.33;;;0.60;;
46505;SDS011;32220;49.808;9.968;2024-02-23T10:29:15;2.90;;;0.90;;
46505;SDS011;32220;49.808;9.968;2024-02-23T10:31:44;1.37;;;0.50;;
46505;SDS011;32220;49.808;9.968;2024-02-23T10:34:17;3.50;;;0.83;;
46505;SDS011;32220;49.808;9.968;2024-02-23T10:36:47;1.40;;;0.80;;
46505;SDS011;32220;49.808;9.968;2024-02-23T10:39:16;2.00;;;0.73;;
46505;SDS011;32220;49.808;9.968;2024-02-23T10:42:00;3.07;;;0.80;;
46505;SDS011;32220;49.808;9.968;2024-02-23T10:44:31;1.70;;;0.53;;
46505;SDS011;32220;49.808;9.968;2024-02-23T10:47:00;2.17;;;0.60;;
46505;SDS011;32220;49.808;9.968;2024-02-23T10:49:28;1.40;;;0.60;;
46505;SDS011;32220;49.808;9.968;2024-02-23T10:51:58;2.70;;;0.87;;
46505;SDS011;32220;49.808;9.968;2024-02-23T10:54:28;5.23;;;0.80;;
46505;SDS011;32220;49.808;9.968;2024-02-23T10:56:58;0.87;;;0.60;;
46505;SDS011;32220;49.808;9.968;2024-02-23T10:59:25;2.23;;;0.70;;
46505;SDS011;32220;49.808;9.968;2024-02-23T11:01:54;1.67;;;0.50;;
46505;SDS011;32220;49.808;9.968;2024-02-23T11:04:28;1.97;;;0.80;;
46505;SDS011;32220;49.808;9.968;2024-02-23T11:06:58;1.43;;;0.60;;
46505;SDS011;32220;49.808;9.968;2024-02-23T11:09:31;1.53;;;0.73;;
46505;SDS011;32220;49.808;9.968;2024-02-23T11:11:59;1.03;;;0.60;;
46505;SDS011;32220;49.808;9.968;2024-02-23T11:14:32;2.50;;;0.53;;
46505;SDS011;32220;49.808;9.968;2024-02-23T11:17:02;1.60;;;0.57;;
46505;SDS011;32220;49.808;9.968;2024-02-23T11:19:35;3.47;;;0.93;;
46505;SDS011;32220;49.808;9.968;2024-02-23T11:22:04;0.80;;;0.53;;
46505;SDS011;32220;49.808;9.968;2024-02-23T11:24:31;2.30;;;0.67;;
46505;SDS011;32220;49.808;9.968;2024-02-23T11:26:59;1.33;;;0.70;;
46505;SDS011;32220;49.808;9.968;2024-02-23T11:29:34;0.90;;;0.57;;
46505;SDS011;32220;49.808;9.968;2024-02-23T11:32:13;2.00;;;0.67;;
46505;SDS011;32220;49.808;9.968;2024-02-23T11:34:57;2.43;;;0.70;;
46505;SDS011;32220;49.808;9.968;2024-02-23T11:37:27;2.33;;;0.63;;
46505;SDS011;32220;49.808;9.968;2024-02-23T11:39:56;2.00;;;0.60;;
46505;SDS011;32220;49.808;9.968;2024-02-23T11:42:24;1.57;;;0.50;;
46505;SDS011;32220;49.808;9.968;2024-02-23T11:44:57;1.30;;;0.60;;
46505;SDS011;32220;49.808;9.968;2024-02-23T11:47:25;1.13;;;0.60;;
46505;SDS011;32220;49.808;9.968;2024-02-23T11:49:53;1.60;;;0.43;;
46505;SDS011;32220;49.808;9.968;2024-02-23T11:52:23;2.23;;;0.70;;
46505;SDS011;32220;49.808;9.968;2024-02-23T11:54:51;1.40;;;0.50;;
46505;SDS011;32220;49.808;9.968;2024-02-23T11:57:19;1.07;;;0.77;;
46505;SDS011;32220;49.808;9.968;2024-02-23T11:59:46;3.43;;;0.70;;
46505;SDS011;32220;49.808;9.968;2024-02-23T12:02:14;2.93;;;0.70;;
46505;SDS011;32220;49.808;9.968;2024-02-23T12:04:41;2.10;;;0.77;;
46505;SDS011;32220;49.808;9.968;2024-02-23T12:07:09;1.47;;;0.60;;
46505;SDS011;32220;49.808;9.968;2024-02-23T12:09:38;3.03;;;0.70;;
46505;SDS011;32220;49.808;9.968;2024-02-23T12:12:07;1.67;;;0.70;;
46505;SDS011;32220;49.808;9.968;2024-02-23T12:14:35;2.17;;;0.80;;
46505;SDS011;32220;49.808;9.968;2024-02-23T12:17:03;3.77;;;0.70;;
46505;SDS011;32220;49.808;9.968;2024-02-23T12:19:32;1.47;;;0.70;;
46505;SDS011;32220;49.808;9.968;2024-02-23T12:22:00;2.33;;;0.50;;
46505;SDS011;32220;49.808;9.968;2024-02-23T12:24:29;2.40;;;0.70;;
46505;SDS011;32220;49.808;9.968;2024-02-23T12:26:58;2.27;;;0.60;;
46505;SDS011;32220;49.808;9.968;2024-02-23T12:29:26;1.27;;;0.43;;
46505;SDS011;32220;49.808;9.968;2024-02-23T12:32:02;0.90;;;0.50;;
46505;SDS011;32220;49.808;9.968;2024-02-23T12:34:30;2.33;;;0.63;;
46505;SDS011;32220;49.808;9.968;2024-02-23T12:36:57;0.87;;;0.50;;
46505;SDS011;32220;49.808;9.968;2024-02-23T12:39:25;1.57;;;0.50;;
46505;SDS011;32220;49.808;9.968;2024-02-23T12:41:55;1.63;;;0.67;;
46505;SDS011;32220;49.808;9.968;2024-02-23T12:44:27;1.40;;;0.60;;
46505;SDS011;32220;49.808;9.968;2024-02-23T12:46:55;1.20;;;0.60;;
46505;SDS011;32220;49.808;9.968;2024-02-23T12:49:22;1.90;;;0.77;;
46505;SDS011;32220;49.808;9.968;2024-02-23T12:51:50;2.30;;;0.80;;
46505;SDS011;32220;49.808;9.968;2024-02-23T12:54:20;1.80;;;0.70;;
46505;SDS011;32220;49.808;9.968;2024-02-23T12:56:47;2.33;;;0.87;;
46505;SDS011;32220;49.808;9.968;2024-02-23T12:59:15;1.57;;;0.60;;
46505;SDS011;32220;49.808;9.968;2024-02-23T13:01:45;2.63;;;0.63;;
46505;SDS011;32220;49.808;9.968;2024-02-23T13:05:25;0.90;;;0.50;;
46505;SDS011;32220;49.808;9.968;2024-02-23T13:07:52;0.93;;;0.60;;
46505;SDS011;32220;49.808;9.968;2024-02-23T13:10:20;4.33;;;0.57;;
46505;SDS011;32220;49.808;9.968;2024-02-23T13:12:47;2.23;;;0.60;;
46505;SDS011;32220;49.808;9.968;2024-02-23T13:15:15;0.43;;;0.43;;
46505;SDS011;32220;49.808;9.968;2024-02-23T13:20:28;2.83;;;0.70;;
46505;SDS011;32220;49.808;9.968;2024-02-23T13:22:56;2.23;;;0.70;;
46505;SDS011;32220;49.808;9.968;2024-02-23T13:25:27;1.27;;;1.10;;
46505;SDS011;32220;49.808;9.968;2024-02-23T13:27:57;3.73;;;0.60;;
46505;SDS011;32220;49.808;9.968;2024-02-23T13:30:25;1.23;;;0.67;;
46505;SDS011;32220;49.808;9.968;2024-02-23T13:33:10;2.40;;;0.80;;
46505;SDS011;32220;49.808;9.968;2024-02-23T13:35:38;2.47;;;0.80;;
46505;SDS011;32220;49.808;9.968;2024-02-23T13:38:06;1.57;;;0.60;;
46505;SDS011;32220;49.808;9.968;2024-02-23T13:40:35;2.03;;;0.70;;
46505;SDS011;32220;49.808;9.968;2024-02-23T13:43:23;1.07;;;0.60;;
46505;SDS011;32220;49.808;9.968;2024-02-23T13:45:51;2.23;;;0.53;;
46505;SDS011;32220;49.808;9.968;2024-02-23T13:51:08;2.03;;;0.57;;
46505;SDS011;32220;49.808;9.968;2024-02-23T13:53:36;1.33;;;0.60;;
46505;SDS011;32220;49.808;9.968;2024-02-23T13:56:04;2.17;;;0.97;;
46505;SDS011;32220;49.808;9.968;2024-02-23T13:58:31;0.90;;;0.60;;
46505;SDS011;32220;49.808;9.968;2024-02-23T14:00:59;1.43;;;0.90;;
46505;SDS011;32220;49.808;9.968;2024-02-23T14:03:30;2.10;;;0.60;;
46505;SDS011;32220;49.808;9.968;2024-02-23T14:05:59;1.33;;;0.70;;
46505;SDS011;32220;49.808;9.968;2024-02-23T14:08:27;0.80;;;0.60;;
46505;SDS011;32220;49.808;9.968;2024-02-23T14:10:55;1.43;;;0.77;;
46505;SDS011;32220;49.808;9.968;2024-02-23T14:13:22;2.47;;;0.60;;
46505;SDS011;32220;49.808;9.968;2024-02-23T14:15:50;1.20;;;0.70;;
46505;SDS011;32220;49.808;9.968;2024-02-23T14:18:18;1.50;;;0.77;;
46505;SDS011;32220;49.808;9.968;2024-02-23T14:20:45;0.93;;;0.60;;
46505;SDS011;32220;49.808;9.968;2024-02-23T14:23:14;1.23;;;0.77;;
46505;SDS011;32220;49.808;9.968;2024-02-23T14:25:42;2.67;;;0.60;;
46505;SDS011;32220;49.808;9.968;2024-02-23T14:28:09;0.97;;;0.50;;
46505;SDS011;32220;49.808;9.968;2024-02-23T14:30:40;2.57;;;0.70;;
46505;SDS011;32220;49.808;9.968;2024-02-23T14:33:09;1.43;;;0.70;;
46505;SDS011;32220;49.808;9.968;2024-02-23T14:35:50;2.50;;;1.13;;
46505;SDS011;32220;49.808;9.968;2024-02-23T14:38:20;1.33;;;0.73;;
46505;SDS011;32220;49.808;9.968;2024-02-23T14:40:49;0.60;;;0.60;;
46505;SDS011;32220;49.808;9.968;2024-02-23T14:43:19;2.13;;;0.50;;
46505;SDS011;32220;49.808;9.968;2024-02-23T14:45:49;2.07;;;1.10;;
46505;SDS011;32220;49.808;9.968;2024-02-23T14:48:30;2.30;;;0.60;;
46505;SDS011;32220;49.808;9.968;2024-02-23T14:50:58;0.50;;;0.50;;
46505;SDS011;32220;49.808;9.968;2024-02-23T14:53:41;2.00;;;0.70;;
46505;SDS011;32220;49.808;9.968;2024-02-23T14:56:11;1.57;;;0.63;;
46505;SDS011;32220;49.808;9.968;2024-02-23T14:58:39;2.93;;;0.63;;
46505;SDS011;32220;49.808;9.968;2024-02-23T15:01:13;1.90;;;0.60;;
46505;SDS011;32220;49.808;9.968;2024-02-23T15:03:41;1.67;;;0.70;;
46505;SDS011;32220;49.808;9.968;2024-02-23T15:06:08;2.47;;;0.90;;
46505;SDS011;32220;49.808;9.968;2024-02-23T15:08:38;1.43;;;0.57;;
46505;SDS011;32220;49.808;9.968;2024-02-23T15:11:07;0.80;;;0.53;;
46505;SDS011;32220;49.808;9.968;2024-02-23T15:13:35;1.20;;;0.70;;
46505;SDS011;32220;49.808;9.968;2024-02-23T15:16:03;0.80;;;0.70;;
46505;SDS011;32220;49.808;9.968;2024-02-23T15:18:31;0.63;;;0.50;;
46505;SDS011;32220;49.808;9.968;2024-02-23T15:21:02;1.90;;;0.70;;
46505;SDS011;32220;49.808;9.968;2024-02-23T15:23:30;2.00;;;0.77;;
46505;SDS011;32220;49.808;9.968;2024-02-23T15:25:58;2.67;;;0.73;;
46505;SDS011;32220;49.808;9.968;2024-02-23T15:28:26;1.10;;;0.50;;
46505;SDS011;32220;49.808;9.968;2024-02-23T15:30:54;1.00;;;0.70;;
46505;SDS011;32220;49.808;9.968;2024-02-23T15:33:21;1.43;;;0.50;;
46505;SDS011;32220;49.808;9.968;2024-02-23T15:35:50;2.07;;;0.80;;
46505;SDS011;32220;49.808;9.968;2024-02-23T15:38:17;1.23;;;0.70;;
46505;SDS011;32220;49.808;9.968;2024-02-23T15:40:45;1.03;;;0.60;;
46505;SDS011;32220;49.808;9.968;2024-02-23T15:43:13;1.47;;;0.70;;
46505;SDS011;32220;49.808;9.968;2024-02-23T15:45:56;2.17;;;0.60;;
46505;SDS011;32220;49.808;9.968;2024-02-23T15:48:24;0.97;;;0.63;;
46505;SDS011;32220;49.808;9.968;2024-02-23T15:50:54;0.90;;;0.77;;
46505;SDS011;32220;49.808;9.968;2024-02-23T15:53:22;1.00;;;0.70;;
46505;SDS011;32220;49.808;9.968;2024-02-23T15:55:51;1.13;;;0.80;;
46505;SDS011;32220;49.808;9.968;2024-02-23T15:58:19;1.23;;;0.70;;
46505;SDS011;32220;49.808;9.968;2024-02-23T16:01:03;2.07;;;0.87;;
46505;SDS011;32220;49.808;9.968;2024-02-23T16:03:31;1.43;;;0.90;;
46505;SDS011;32220;49.808;9.968;2024-02-23T16:05:59;2.67;;;0.80;;
46505;SDS011;32220;49.808;9.968;2024-02-23T16:08:37;2.23;;;0.70;;
46505;SDS011;32220;49.808;9.968;2024-02-23T16:11:07;1.53;;;0.50;;
46505;SDS011;32220;49.808;9.968;2024-02-23T16:13:36;1.40;;;0.50;;
46505;SDS011;32220;49.808;9.968;2024-02-23T16:16:07;1.37;;;0.53;;
46505;SDS011;32220;49.808;9.968;2024-02-23T16:18:36;2.23;;;0.70;;
46505;SDS011;32220;49.808;9.968;2024-02-23T16:21:04;1.00;;;0.80;;
46505;SDS011;32220;49.808;9.968;2024-02-23T16:23:32;0.53;;;0.53;;
46505;SDS011;32220;49.808;9.968;2024-02-23T16:25:59;0.63;;;0.50;;
46505;SDS011;32220;49.808;9.968;2024-02-23T16:28:27;0.73;;;0.70;;
46505;SDS011;32220;49.808;9.968;2024-02-23T16:30:55;0.87;;;0.40;;
46505;SDS011;32220;49.808;9.968;2024-02-23T16:33:24;1.30;;;0.70;;
46505;SDS011;32220;49.808;9.968;2024-02-23T16:35:51;1.80;;;0.70;;
46505;SDS011;32220;49.808;9.968;2024-02-23T16:38:22;1.60;;;0.73;;
46505;SDS011;32220;49.808;9.968;2024-02-23T16:40:50;3.37;;;1.10;;
46505;SDS011;32220;49.808;9.968;2024-02-23T16:43:17;3.30;;;1.03;;
46505;SDS011;32220;49.808;9.968;2024-02-23T16:45:44;1.57;;;0.97;;
46505;SDS011;32220;49.808;9.968;2024-02-23T16:48:13;4.60;;;1.50;;
46505;SDS011;32220;49.808;9.968;2024-02-23T16:50:43;1.47;;;1.20;;
46505;SDS011;32220;49.808;9.968;2024-02-23T16:53:12;2.50;;;1.10;;
46505;SDS011;32220;49.808;9.968;2024-02-23T16:55:40;2.37;;;1.10;;
46505;SDS011;32220;49.808;9.968;2024-02-23T16:58:09;2.13;;;0.90;;
46505;SDS011;32220;49.808;9.968;2024-02-23T17:00:37;1.70;;;0.80;;
46505;SDS011;32220;49.808;9.968;2024-02-23T17:03:05;2.50;;;0.90;;
46505;SDS011;32220;49.808;9.968;2024-02-23T17:05:33;2.53;;;1.00;;
46505;SDS011;32220;49.808;9.968;2024-02-23T17:10:44;0.63;;;0.63;;
46505;SDS011;32220;49.808;9.968;2024-02-23T17:13:12;1.33;;;0.80;;
46505;SDS011;32220;49.808;9.968;2024-02-23T17:15:39;2.40;;;0.90;;
46505;SDS011;32220;49.808;9.968;2024-02-23T17:18:07;1.17;;;0.80;;
46505;SDS011;32220;49.808;9.968;2024-02-23T17:20:35;1.93;;;0.90;;
46505;SDS011;32220;49.808;9.968;2024-02-23T17:23:03;1.83;;;0.97;;
46505;SDS011;32220;49.808;9.968;2024-02-23T17:25:32;4.20;;;0.90;;
46505;SDS011;32220;49.808;9.968;2024-02-23T17:28:00;2.43;;;1.00;;
46505;SDS011;32220;49.808;9.968;2024-02-23T17:30:27;2.73;;;1.07;;
46505;SDS011;32220;49.808;9.968;2024-02-23T17:32:56;4.90;;;1.07;;
46505;SDS011;32220;49.808;9.968;2024-02-23T17:35:23;1.63;;;0.80;;
46505;SDS011;32220;49.808;9.968;2024-02-23T17:37:51;0.87;;;0.67;;
46505;SDS011;32220;49.808;9.968;2024-02-23T17:40:21;3.10;;;1.13;;
46505;SDS011;32220;49.808;9.968;2024-02-23T17:42:50;1.30;;;1.00;;
46505;SDS011;32220;49.808;9.968;2024-02-23T17:45:18;1.40;;;1.00;;
46505;SDS011;32220;49.808;9.968;2024-02-23T17:47:45;2.00;;;0.93;;
46505;SDS011;32220;49.808;9.968;2024-02-23T17:50:13;2.17;;;0.93;;
46505;SDS011;32220;49.808;9.968;2024-02-23T17:52:40;3.03;;;1.43;;
46505;SDS011;32220;49.808;9.968;2024-02-23T17:55:08;3.57;;;1.23;;
46505;SDS011;32220;49.808;9.968;2024-02-23T17:57:35;2.27;;;1.40;;
46505;SDS011;32220;49.808;9.968;2024-02-23T18:00:05;6.17;;;2.40;;
46505;SDS011;32220;49.808;9.968;2024-02-23T18:02:34;4.17;;;2.30;;
46505;SDS011;32220;49.808;9.968;2024-02-23T18:05:01;3.80;;;2.00;;
46505;SDS011;32220;49.808;9.968;2024-02-23T18:07:29;4.87;;;1.87;;
46505;SDS011;32220;49.808;9.968;2024-02-23T18:09:56;3.40;;;2.10;;
46505;SDS011;32220;49.808;9.968;2024-02-23T18:12:24;6.50;;;2.83;;
46505;SDS011;32220;49.808;9.968;2024-02-23T18:14:51;3.63;;;1.80;;
46505;SDS011;32220;49.808;9.968;2024-02-23T18:17:20;3.07;;;1.40;;
46505;SDS011;32220;49.808;9.968;2024-02-23T18:19:48;1.60;;;1.00;;
46505;SDS011;32220;49.808;9.968;2024-02-23T18:22:16;1.63;;;1.30;;
46505;SDS011;32220;49.808;9.968;2024-02-23T18:24:43;3.37;;;2.57;;
46505;SDS011;32220;49.808;9.968;2024-02-23T18:27:11;3.07;;;2.13;;
46505;SDS011;32220;49.808;9.968;2024-02-23T18:29:39;1.93;;;1.57;;
46505;SDS011;32220;49.808;9.968;2024-02-23T18:32:07;2.77;;;1.50;;
46505;SDS011;32220;49.808;9.968;2024-02-23T18:34:36;4.23;;;1.93;;
46505;SDS011;32220;49.808;9.968;2024-02-23T18:37:04;2.73;;;1.77;;
46505;SDS011;32220;49.808;9.968;2024-02-23T18:39:34;2.50;;;1.80;;
46505;SDS011;32220;49.808;9.968;2024-02-23T18:42:01;3.50;;;1.60;;
46505;SDS011;32220;49.808;9.968;2024-02-23T18:44:29;2.73;;;1.73;;
46505;SDS011;32220;49.808;9.968;2024-02-23T18:46:57;1.63;;;1.20;;
46505;SDS011;32220;49.808;9.968;2024-02-23T18:49:24;2.37;;;1.13;;
46505;SDS011;32220;49.808;9.968;2024-02-23T18:51:56;1.80;;;1.30;;
46505;SDS011;32220;49.808;9.968;2024-02-23T18:54:24;2.17;;;1.10;;
46505;SDS011;32220;49.808;9.968;2024-02-23T18:56:52;1.40;;;0.80;;
46505;SDS011;32220;49.808;9.968;2024-02-23T18:59:20;1.93;;;0.87;;
46505;SDS011;32220;49.808;9.968;2024-02-23T19:01:47;3.07;;;1.00;;
46505;SDS011;32220;49.808;9.968;2024-02-23T19:04:15;2.50;;;1.63;;
46505;SDS011;32220;49.808;9.968;2024-02-23T19:06:42;3.03;;;2.10;;
46505;SDS011;32220;49.808;9.968;2024-02-23T19:09:12;2.67;;;1.60;;
46505;SDS011;32220;49.808;9.968;2024-02-23T19:11:39;1.63;;;1.40;;
46505;SDS011;32220;49.808;9.968;2024-02-23T19:14:07;3.03;;;1.50;;
46505;SDS011;32220;49.808;9.968;2024-02-23T19:16:34;3.50;;;1.33;;
46505;SDS011;32220;49.808;9.968;2024-02-23T19:19:03;2.37;;;1.53;;
46505;SDS011;32220;49.808;9.968;2024-02-23T19:21:31;3.27;;;1.67;;
46505;SDS011;32220;49.808;9.968;2024-02-23T19:23:59;3.17;;;1.70;;
46505;SDS011;32220;49.808;9.968;2024-02-23T19:26:28;4.17;;;2.00;;
46505;SDS011;32220;49.808;9.968;2024-02-23T19:28:55;2.43;;;1.63;;
46505;SDS011;32220;49.808;9.968;2024-02-23T19:31:23;1.43;;;1.33;;
46505;SDS011;32220;49.808;9.968;2024-02-23T19:33:52;3.77;;;1.57;;
46505;SDS011;32220;49.808;9.968;2024-02-23T19:36:20;3.40;;;1.43;;
46505;SDS011;32220;49.808;9.968;2024-02-23T19:38:49;4.27;;;1.33;;
46505;SDS011;32220;49.808;9.968;2024-02-23T19:41:16;2.10;;;1.37;;
46505;SDS011;32220;49.808;9.968;2024-02-23T19:43:46;2.93;;;1.30;;
46505;SDS011;32220;49.808;9.968;2024-02-23T19:46:14;3.23;;;1.43;;
46505;SDS011;32220;49.808;9.968;2024-02-23T19:48:44;4.43;;;1.87;;
46505;SDS011;32220;49.808;9.968;2024-02-23T19:51:12;3.73;;;1.70;;
46505;SDS011;32220;49.808;9.968;2024-02-23T19:53:40;4.87;;;2.20;;
46505;SDS011;32220;49.808;9.968;2024-02-23T19:56:08;4.70;;;2.40;;
46505;SDS011;32220;49.808;9.968;2024-02-23T19:58:36;5.10;;;2.47;;
46505;SDS011;32220;49.808;9.968;2024-02-23T20:01:05;5.73;;;3.23;;
46505;SDS011;32220;49.808;9.968;2024-02-23T20:03:32;6.67;;;2.87;;
46505;SDS011;32220;49.808;9.968;2024-02-23T20:06:00;5.10;;;3.10;;
46505;SDS011;32220;49.808;9.968;2024-02-23T20:08:27;5.47;;;2.93;;
46505;SDS011;32220;49.808;9.968;2024-02-23T20:10:55;3.60;;;2.50;;
46505;SDS011;32220;49.808;9.968;2024-02-23T20:13:25;6.23;;;2.70;;
46505;SDS011;32220;49.808;9.968;2024-02-23T20:15:55;5.07;;;2.83;;
46505;SDS011;32220;49.808;9.968;2024-02-23T20:18:24;4.43;;;2.43;;
46505;SDS011;32220;49.808;9.968;2024-02-23T20:20:51;8.67;;;2.77;;
46505;SDS011;32220;49.808;9.968;2024-02-23T20:23:19;3.47;;;2.03;;
46505;SDS011;32220;49.808;9.968;2024-02-23T20:25:46;3.07;;;2.10;;
46505;SDS011;32220;49.808;9.968;2024-02-23T20:28:14;3.93;;;2.10;;
46505;SDS011;32220;49.808;9.968;2024-02-23T20:30:43;4.13;;;1.67;;
46505;SDS011;32220;49.808;9.968;2024-02-23T20:33:10;4.07;;;1.73;;
46505;SDS011;32220;49.808;9.968;2024-02-23T20:35:39;3.33;;;1.73;;
46505;SDS011;32220;49.808;9.968;2024-02-23T20:38:07;6.17;;;1.60;;
46505;SDS011;32220;49.808;9.968;2024-02-23T20:40:35;3.13;;;1.50;;
46505;SDS011;32220;49.808;9.968;2024-02-23T20:43:03;3.23;;;1.70;;
46505;SDS011;32220;49.808;9.968;2024-02-23T20:45:31;1.93;;;1.60;;
46505;SDS011;32220;49.808;9.968;2024-02-23T20:47:58;2.90;;;1.50;;
46505;SDS011;32220;49.808;9.968;2024-02-23T20:50:26;2.20;;;1.53;;
46505;SDS011;32220;49.808;9.968;2024-02-23T20:52:55;3.00;;;1.40;;
46505;SDS011;32220;49.808;9.968;2024-02-23T20:55:22;3.73;;;1.63;;
46505;SDS011;32220;49.808;9.968;2024-02-23T20:57:51;2.23;;;1.60;;
46505;SDS011;32220;49.808;9.968;2024-02-23T21:00:20;4.57;;;1.60;;
46505;SDS011;32220;49.808;9.968;2024-02-23T21:02:47;2.03;;;1.57;;
46505;SDS011;32220;49.808;9.968;2024-02-23T21:05:14;2.60;;;1.67;;
46505;SDS011;32220;49.808;9.968;2024-02-23T21:07:44;2.90;;;2.00;;
46505;SDS011;32220;49.808;9.968;2024-02-23T21:10:13;3.63;;;1.60;;
46505;SDS011;32220;49.808;9.968;2024-02-23T21:12:42;2.80;;;1.40;;
46505;SDS011;32220;49.808;9.968;2024-02-23T21:15:09;2.90;;;1.60;;
46505;SDS011;32220;49.808;9.968;2024-02-23T21:17:37;4.90;;;1.97;;
46505;SDS011;32220;49.808;9.968;2024-02-23T21:20:05;2.40;;;1.50;;
46505;SDS011;32220;49.808;9.968;2024-02-23T21:22:33;1.97;;;1.30;;
46505;SDS011;32220;49.808;9.968;2024-02-23T21:25:01;2.20;;;1.30;;
46505;SDS011;32220;49.808;9.968;2024-02-23T21:27:30;3.23;;;1.60;;
46505;SDS011;32220;49.808;9.968;2024-02-23T21:29:57;2.60;;;1.47;;
46505;SDS011;32220;49.808;9.968;2024-02-23T21:32:25;2.30;;;1.40;;
46505;SDS011;32220;49.808;9.968;2024-02-23T21:34:52;2.23;;;1.10;;
46505;SDS011;32220;49.808;9.968;2024-02-23T21:37:20;1.93;;;1.30;;
46505;SDS011;32220;49.808;9.968;2024-02-23T21:39:47;4.97;;;1.50;;
46505;SDS011;32220;49.808;9.968;2024-02-23T21:42:15;3.27;;;1.43;;
46505;SDS011;32220;49.808;9.968;2024-02-23T21:44:44;4.40;;;1.43;;
